sensor_id;sensor_type;location;lat;lon;timestamp;P1;durP1;ratioP1;P2;durP2;ratioP2
22937;SDS011;11634;42.734;23.298;2023-04-10T04:54:06;15.30;;;13.18;;
22937;SDS011;11634;42.734;23.298;2023-04-10T04:56:50;19.13;;;15.63;;
22937;SDS011;11634;42.734;23.298;2023-04-10T04:59:35;16.77;;;13.73;;
22937;SDS011;11634;42.734;23.298;2023-04-10T05:02:15;22.73;;;17.58;;
22937;SDS011;11634;42.734;23.298;2023-04-10T05:05:04;21.67;;;16.95;;
22937;SDS011;11634;42.734;23.298;2023-04-10T05:07:51;19.42;;;15.75;;
22937;SDS011;11634;42.734;23.298;2023-04-10T05:10:41;19.85;;;16.42;;
22937;SDS011;11634;42.734;23.298;2023-04-10T05:13:18;17.95;;;15.82;;
22937;SDS011;11634;42.734;23.298;2023-04-10T05:16:09;20.13;;;15.85;;
22937;SDS011;11634;42.734;23.298;2023-04-10T05:18:51;18.00;;;14.98;;
22937;SDS011;11634;42.734;23.298;2023-04-10T05:21:39;16.95;;;14.48;;
22937;SDS011;11634;42.734;23.298;2023-04-10T05:24:28;17.38;;;14.25;;
22937;SDS011;11634;42.734;23.298;2023-04-10T05:27:23;18.55;;;14.88;;
22937;SDS011;11634;42.734;23.298;2023-04-10T05:30:24;19.55;;;13.55;;
22937;SDS011;11634;42.734;23.298;2023-04-10T05:33:09;21.00;;;16.75;;
22937;SDS011;11634;42.734;23.298;2023-04-10T05:35:58;23.15;;;16.83;;
22937;SDS011;11634;42.734;23.298;2023-04-10T05:38:32;20.85;;;16.98;;
22937;SDS011;11634;42.734;23.298;2023-04-10T05:41:10;19.52;;;16.27;;
22937;SDS011;11634;42.734;23.298;2023-04-10T05:44:04;19.42;;;14.95;;
22937;SDS011;11634;42.734;23.298;2023-04-10T05:46:50;15.32;;;13.50;;
22937;SDS011;11634;42.734;23.298;2023-04-10T05:49:33;17.58;;;13.80;;
22937;SDS011;11634;42.734;23.298;2023-04-10T05:52:12;19.33;;;14.27;;
22937;SDS011;11634;42.734;23.298;2023-04-10T05:54:41;16.55;;;14.60;;
22937;SDS011;11634;42.734;23.298;2023-04-10T05:57:25;18.33;;;14.63;;
22937;SDS011;11634;42.734;23.298;2023-04-10T05:59:54;20.15;;;14.98;;
22937;SDS011;11634;42.734;23.298;2023-04-10T06:02:40;17.77;;;14.90;;
22937;SDS011;11634;42.734;23.298;2023-04-10T06:05:14;19.90;;;16.20;;
22937;SDS011;11634;42.734;23.298;2023-04-10T06:07:43;20.17;;;15.45;;
22937;SDS011;11634;42.734;23.298;2023-04-10T06:10:09;17.23;;;14.52;;
22937;SDS011;11634;42.734;23.298;2023-04-10T06:12:35;15.32;;;13.70;;
22937;SDS011;11634;42.734;23.298;2023-04-10T06:15:07;16.55;;;14.55;;
22937;SDS011;11634;42.734;23.298;2023-04-10T06:17:34;18.77;;;14.40;;
22937;SDS011;11634;42.734;23.298;2023-04-10T06:20:07;14.65;;;13.05;;
22937;SDS011;11634;42.734;23.298;2023-04-10T06:22:33;15.07;;;13.40;;
22937;SDS011;11634;42.734;23.298;2023-04-10T06:25:00;14.95;;;13.25;;
22937;SDS011;11634;42.734;23.298;2023-04-10T06:27:26;15.52;;;13.15;;
22937;SDS011;11634;42.734;23.298;2023-04-10T06:29:52;16.52;;;13.55;;
22937;SDS011;11634;42.734;23.298;2023-04-10T06:32:20;13.85;;;12.32;;
22937;SDS011;11634;42.734;23.298;2023-04-10T06:34:48;14.18;;;12.68;;
22937;SDS011;11634;42.734;23.298;2023-04-10T06:37:15;15.38;;;13.68;;
22937;SDS011;11634;42.734;23.298;2023-04-10T06:39:42;15.77;;;13.60;;
22937;SDS011;11634;42.734;23.298;2023-04-10T06:42:08;17.55;;;14.80;;
22937;SDS011;11634;42.734;23.298;2023-04-10T06:44:54;15.70;;;13.93;;
22937;SDS011;11634;42.734;23.298;2023-04-10T06:50:04;15.93;;;12.95;;
22937;SDS011;11634;42.734;23.298;2023-04-10T06:52:30;18.85;;;13.85;;
22937;SDS011;11634;42.734;23.298;2023-04-10T06:54:56;16.17;;;12.88;;
22937;SDS011;11634;42.734;23.298;2023-04-10T06:57:22;14.40;;;12.63;;
22937;SDS011;11634;42.734;23.298;2023-04-10T06:59:47;22.58;;;15.98;;
22937;SDS011;11634;42.734;23.298;2023-04-10T07:02:13;15.95;;;13.10;;
22937;SDS011;11634;42.734;23.298;2023-04-10T07:04:40;15.40;;;13.27;;
22937;SDS011;11634;42.734;23.298;2023-04-10T07:07:06;13.50;;;11.63;;
22937;SDS011;11634;42.734;23.298;2023-04-10T07:09:36;15.57;;;12.65;;
22937;SDS011;11634;42.734;23.298;2023-04-10T07:12:03;13.95;;;11.80;;
22937;SDS011;11634;42.734;23.298;2023-04-10T07:14:29;13.18;;;10.82;;
22937;SDS011;11634;42.734;23.298;2023-04-10T07:16:56;14.65;;;12.90;;
22937;SDS011;11634;42.734;23.298;2023-04-10T07:19:22;10.55;;;8.70;;
22937;SDS011;11634;42.734;23.298;2023-04-10T07:21:47;13.20;;;11.80;;
22937;SDS011;11634;42.734;23.298;2023-04-10T07:24:17;15.85;;;13.30;;
22937;SDS011;11634;42.734;23.298;2023-04-10T07:26:43;14.05;;;12.63;;
22937;SDS011;11634;42.734;23.298;2023-04-10T07:29:10;22.25;;;13.13;;
22937;SDS011;11634;42.734;23.298;2023-04-10T07:31:36;16.02;;;12.38;;
22937;SDS011;11634;42.734;23.298;2023-04-10T07:34:01;17.75;;;15.30;;
22937;SDS011;11634;42.734;23.298;2023-04-10T07:36:27;18.17;;;14.77;;
22937;SDS011;11634;42.734;23.298;2023-04-10T07:38:54;19.42;;;16.20;;
22937;SDS011;11634;42.734;23.298;2023-04-10T07:41:20;25.50;;;16.50;;
22937;SDS011;11634;42.734;23.298;2023-04-10T07:43:46;19.23;;;15.75;;
22937;SDS011;11634;42.734;23.298;2023-04-10T07:46:12;20.25;;;15.40;;
22937;SDS011;11634;42.734;23.298;2023-04-10T07:48:38;18.27;;;14.35;;
22937;SDS011;11634;42.734;23.298;2023-04-10T07:51:04;18.98;;;14.18;;
22937;SDS011;11634;42.734;23.298;2023-04-10T07:53:34;19.35;;;14.52;;
22937;SDS011;11634;42.734;23.298;2023-04-10T07:56:02;17.98;;;14.55;;
22937;SDS011;11634;42.734;23.298;2023-04-10T07:58:29;17.30;;;13.80;;
22937;SDS011;11634;42.734;23.298;2023-04-10T08:00:57;17.45;;;13.13;;
22937;SDS011;11634;42.734;23.298;2023-04-10T08:03:24;17.02;;;14.05;;
22937;SDS011;11634;42.734;23.298;2023-04-10T08:05:51;14.65;;;12.50;;
22937;SDS011;11634;42.734;23.298;2023-04-10T08:08:17;15.88;;;13.45;;
22937;SDS011;11634;42.734;23.298;2023-04-10T08:10:42;12.60;;;10.70;;
22937;SDS011;11634;42.734;23.298;2023-04-10T08:13:08;13.35;;;10.73;;
22937;SDS011;11634;42.734;23.298;2023-04-10T08:15:33;12.95;;;10.43;;
22937;SDS011;11634;42.734;23.298;2023-04-10T08:17:59;10.93;;;8.25;;
22937;SDS011;11634;42.734;23.298;2023-04-10T08:20:25;10.48;;;9.35;;
22937;SDS011;11634;42.734;23.298;2023-04-10T08:22:51;10.02;;;8.63;;
22937;SDS011;11634;42.734;23.298;2023-04-10T08:25:18;10.63;;;8.13;;
22937;SDS011;11634;42.734;23.298;2023-04-10T08:27:43;11.68;;;8.85;;
22937;SDS011;11634;42.734;23.298;2023-04-10T08:30:09;6.80;;;5.05;;
22937;SDS011;11634;42.734;23.298;2023-04-10T08:32:37;11.05;;;8.85;;
22937;SDS011;11634;42.734;23.298;2023-04-10T08:35:04;9.50;;;8.60;;
22937;SDS011;11634;42.734;23.298;2023-04-10T08:37:31;10.57;;;9.48;;
22937;SDS011;11634;42.734;23.298;2023-04-10T08:39:57;9.70;;;8.70;;
22937;SDS011;11634;42.734;23.298;2023-04-10T08:42:23;10.05;;;7.32;;
22937;SDS011;11634;42.734;23.298;2023-04-10T08:44:51;9.82;;;8.85;;
22937;SDS011;11634;42.734;23.298;2023-04-10T08:47:17;11.85;;;8.70;;
22937;SDS011;11634;42.734;23.298;2023-04-10T08:49:59;10.75;;;8.10;;
22937;SDS011;11634;42.734;23.298;2023-04-10T08:52:30;8.73;;;7.82;;
22937;SDS011;11634;42.734;23.298;2023-04-10T08:54:59;8.50;;;6.57;;
22937;SDS011;11634;42.734;23.298;2023-04-10T08:57:31;9.05;;;8.15;;
22937;SDS011;11634;42.734;23.298;2023-04-10T08:59:57;11.00;;;8.73;;
22937;SDS011;11634;42.734;23.298;2023-04-10T09:02:24;11.35;;;9.60;;
22937;SDS011;11634;42.734;23.298;2023-04-10T09:04:52;6.68;;;5.50;;
22937;SDS011;11634;42.734;23.298;2023-04-10T09:07:19;8.43;;;6.05;;
22937;SDS011;11634;42.734;23.298;2023-04-10T09:09:46;8.52;;;6.75;;
22937;SDS011;11634;42.734;23.298;2023-04-10T09:12:15;8.13;;;6.88;;
22937;SDS011;11634;42.734;23.298;2023-04-10T09:15:12;11.35;;;10.15;;
22937;SDS011;11634;42.734;23.298;2023-04-10T09:17:58;8.95;;;8.05;;
22937;SDS011;11634;42.734;23.298;2023-04-10T09:20:28;9.57;;;8.60;;
22937;SDS011;11634;42.734;23.298;2023-04-10T09:22:55;10.80;;;9.15;;
22937;SDS011;11634;42.734;23.298;2023-04-10T09:25:35;8.23;;;7.15;;
22937;SDS011;11634;42.734;23.298;2023-04-10T09:28:05;14.38;;;9.18;;
22937;SDS011;11634;42.734;23.298;2023-04-10T09:30:35;11.10;;;9.45;;
22937;SDS011;11634;42.734;23.298;2023-04-10T09:33:26;10.23;;;8.77;;
22937;SDS011;11634;42.734;23.298;2023-04-10T09:36:11;10.55;;;8.93;;
22937;SDS011;11634;42.734;23.298;2023-04-10T09:38:40;10.52;;;9.48;;
22937;SDS011;11634;42.734;23.298;2023-04-10T09:41:08;10.88;;;9.80;;
22937;SDS011;11634;42.734;23.298;2023-04-10T09:43:34;10.05;;;7.50;;
22937;SDS011;11634;42.734;23.298;2023-04-10T09:46:00;11.85;;;9.10;;
22937;SDS011;11634;42.734;23.298;2023-04-10T09:48:27;9.90;;;8.55;;
22937;SDS011;11634;42.734;23.298;2023-04-10T09:50:53;10.30;;;9.30;;
22937;SDS011;11634;42.734;23.298;2023-04-10T09:53:20;8.60;;;6.40;;
22937;SDS011;11634;42.734;23.298;2023-04-10T09:55:47;9.02;;;8.00;;
22937;SDS011;11634;42.734;23.298;2023-04-10T09:58:14;12.15;;;9.63;;
22937;SDS011;11634;42.734;23.298;2023-04-10T10:00:42;10.00;;;9.00;;
22937;SDS011;11634;42.734;23.298;2023-04-10T10:03:10;10.27;;;9.02;;
22937;SDS011;11634;42.734;23.298;2023-04-10T10:05:37;11.50;;;8.85;;
22937;SDS011;11634;42.734;23.298;2023-04-10T10:08:05;9.93;;;7.93;;
22937;SDS011;11634;42.734;23.298;2023-04-10T10:10:32;10.43;;;9.25;;
22937;SDS011;11634;42.734;23.298;2023-04-10T10:13:11;9.02;;;8.10;;
22937;SDS011;11634;42.734;23.298;2023-04-10T10:18:50;11.00;;;8.10;;
22937;SDS011;11634;42.734;23.298;2023-04-10T10:21:20;11.20;;;9.15;;
22937;SDS011;11634;42.734;23.298;2023-04-10T10:23:47;9.88;;;8.60;;
22937;SDS011;11634;42.734;23.298;2023-04-10T10:26:18;9.85;;;8.85;;
22937;SDS011;11634;42.734;23.298;2023-04-10T10:28:45;9.80;;;8.82;;
22937;SDS011;11634;42.734;23.298;2023-04-10T10:31:14;12.13;;;9.05;;
22937;SDS011;11634;42.734;23.298;2023-04-10T10:33:42;10.02;;;9.10;;
22937;SDS011;11634;42.734;23.298;2023-04-10T10:36:08;10.27;;;9.27;;
22937;SDS011;11634;42.734;23.298;2023-04-10T10:38:36;13.13;;;9.27;;
22937;SDS011;11634;42.734;23.298;2023-04-10T10:41:09;8.52;;;7.72;;
22937;SDS011;11634;42.734;23.298;2023-04-10T10:43:49;7.65;;;6.95;;
22937;SDS011;11634;42.734;23.298;2023-04-10T10:49:13;7.53;;;6.32;;
22937;SDS011;11634;42.734;23.298;2023-04-10T10:54:47;8.60;;;7.32;;
22937;SDS011;11634;42.734;23.298;2023-04-10T10:57:44;8.95;;;8.15;;
22937;SDS011;11634;42.734;23.298;2023-04-10T11:00:11;9.48;;;8.48;;
22937;SDS011;11634;42.734;23.298;2023-04-10T11:02:37;9.95;;;8.40;;
22937;SDS011;11634;42.734;23.298;2023-04-10T11:05:03;8.13;;;7.32;;
22937;SDS011;11634;42.734;23.298;2023-04-10T11:13:36;11.23;;;8.30;;
22937;SDS011;11634;42.734;23.298;2023-04-10T11:16:03;10.60;;;9.48;;
22937;SDS011;11634;42.734;23.298;2023-04-10T11:24:00;6.65;;;5.03;;
22937;SDS011;11634;42.734;23.298;2023-04-10T11:31:59;7.78;;;6.57;;
22937;SDS011;11634;42.734;23.298;2023-04-10T11:34:28;7.68;;;6.60;;
22937;SDS011;11634;42.734;23.298;2023-04-10T11:36:59;6.20;;;5.60;;
22937;SDS011;11634;42.734;23.298;2023-04-10T11:39:29;10.63;;;8.05;;
22937;SDS011;11634;42.734;23.298;2023-04-10T11:41:55;9.30;;;8.38;;
22937;SDS011;11634;42.734;23.298;2023-04-10T11:44:31;10.75;;;8.25;;
22937;SDS011;11634;42.734;23.298;2023-04-10T11:47:04;10.55;;;8.73;;
22937;SDS011;11634;42.734;23.298;2023-04-10T11:49:32;9.80;;;8.90;;
22937;SDS011;11634;42.734;23.298;2023-04-10T11:51:58;12.10;;;9.07;;
22937;SDS011;11634;42.734;23.298;2023-04-10T11:54:26;9.52;;;8.60;;
22937;SDS011;11634;42.734;23.298;2023-04-10T11:57:04;8.80;;;7.90;;
22937;SDS011;11634;42.734;23.298;2023-04-10T11:59:34;7.40;;;6.70;;
22937;SDS011;11634;42.734;23.298;2023-04-10T12:04:42;9.52;;;8.52;;
22937;SDS011;11634;42.734;23.298;2023-04-10T12:07:08;10.05;;;8.38;;
22937;SDS011;11634;42.734;23.298;2023-04-10T12:09:34;6.95;;;5.78;;
22937;SDS011;11634;42.734;23.298;2023-04-10T12:12:01;8.90;;;8.00;;
22937;SDS011;11634;42.734;23.298;2023-04-10T12:14:35;10.80;;;9.13;;
22937;SDS011;11634;42.734;23.298;2023-04-10T12:17:06;9.80;;;8.80;;
22937;SDS011;11634;42.734;23.298;2023-04-10T12:19:40;9.98;;;8.98;;
22937;SDS011;11634;42.734;23.298;2023-04-10T12:22:06;12.02;;;9.77;;
22937;SDS011;11634;42.734;23.298;2023-04-10T12:24:45;11.60;;;9.98;;
22937;SDS011;11634;42.734;23.298;2023-04-10T12:27:22;9.73;;;7.53;;
22937;SDS011;11634;42.734;23.298;2023-04-10T12:29:55;11.25;;;9.63;;
22937;SDS011;11634;42.734;23.298;2023-04-10T12:32:22;13.07;;;9.98;;
22937;SDS011;11634;42.734;23.298;2023-04-10T12:34:54;14.55;;;12.13;;
22937;SDS011;11634;42.734;23.298;2023-04-10T12:37:21;10.10;;;8.18;;
22937;SDS011;11634;42.734;23.298;2023-04-10T12:39:48;8.48;;;7.65;;
22937;SDS011;11634;42.734;23.298;2023-04-10T12:42:15;10.10;;;6.53;;
22937;SDS011;11634;42.734;23.298;2023-04-10T12:44:51;7.63;;;5.95;;
22937;SDS011;11634;42.734;23.298;2023-04-10T12:47:21;8.50;;;7.25;;
22937;SDS011;11634;42.734;23.298;2023-04-10T12:50:07;10.13;;;7.65;;
22937;SDS011;11634;42.734;23.298;2023-04-10T12:52:41;10.93;;;9.07;;
22937;SDS011;11634;42.734;23.298;2023-04-10T12:57:35;12.68;;;10.95;;
22937;SDS011;11634;42.734;23.298;2023-04-10T13:00:01;13.50;;;11.40;;
22937;SDS011;11634;42.734;23.298;2023-04-10T13:02:27;12.57;;;11.25;;
22937;SDS011;11634;42.734;23.298;2023-04-10T13:04:53;11.88;;;10.52;;
22937;SDS011;11634;42.734;23.298;2023-04-10T13:07:19;13.02;;;11.63;;
22937;SDS011;11634;42.734;23.298;2023-04-10T13:09:45;13.25;;;10.75;;
22937;SDS011;11634;42.734;23.298;2023-04-10T13:12:11;12.25;;;10.98;;
22937;SDS011;11634;42.734;23.298;2023-04-10T13:14:38;10.57;;;9.50;;
22937;SDS011;11634;42.734;23.298;2023-04-10T13:17:06;14.85;;;11.13;;
22937;SDS011;11634;42.734;23.298;2023-04-10T13:19:33;12.63;;;11.15;;
22937;SDS011;11634;42.734;23.298;2023-04-10T13:22:00;12.57;;;8.65;;
22937;SDS011;11634;42.734;23.298;2023-04-10T13:24:27;9.55;;;8.57;;
22937;SDS011;11634;42.734;23.298;2023-04-10T13:26:54;9.52;;;8.55;;
22937;SDS011;11634;42.734;23.298;2023-04-10T13:29:24;9.00;;;8.05;;
22937;SDS011;11634;42.734;23.298;2023-04-10T13:31:51;7.80;;;7.00;;
22937;SDS011;11634;42.734;23.298;2023-04-10T13:34:16;8.95;;;7.97;;
22937;SDS011;11634;42.734;23.298;2023-04-10T13:36:42;7.80;;;7.00;;
22937;SDS011;11634;42.734;23.298;2023-04-10T13:39:09;9.13;;;7.88;;
22937;SDS011;11634;42.734;23.298;2023-04-10T13:41:34;9.63;;;8.32;;
22937;SDS011;11634;42.734;23.298;2023-04-10T13:44:00;9.00;;;8.10;;
22937;SDS011;11634;42.734;23.298;2023-04-10T13:46:26;9.60;;;8.70;;
22937;SDS011;11634;42.734;23.298;2023-04-10T13:48:53;7.13;;;6.35;;
22937;SDS011;11634;42.734;23.298;2023-04-10T13:51:19;7.93;;;7.13;;
22937;SDS011;11634;42.734;23.298;2023-04-10T13:53:44;5.97;;;4.85;;
22937;SDS011;11634;42.734;23.298;2023-04-10T13:56:11;8.35;;;7.55;;
22937;SDS011;11634;42.734;23.298;2023-04-10T13:58:37;8.18;;;7.38;;
22937;SDS011;11634;42.734;23.298;2023-04-10T14:01:02;7.00;;;6.30;;
22937;SDS011;11634;42.734;23.298;2023-04-10T14:03:30;6.43;;;5.82;;
22937;SDS011;11634;42.734;23.298;2023-04-10T14:05:56;6.65;;;5.88;;
22937;SDS011;11634;42.734;23.298;2023-04-10T14:08:22;6.10;;;5.50;;
22937;SDS011;11634;42.734;23.298;2023-04-10T14:10:48;5.95;;;5.35;;
22937;SDS011;11634;42.734;23.298;2023-04-10T14:13:16;4.82;;;4.43;;
22937;SDS011;11634;42.734;23.298;2023-04-10T14:15:42;3.42;;;3.13;;
22937;SDS011;11634;42.734;23.298;2023-04-10T14:18:10;4.55;;;4.13;;
22937;SDS011;11634;42.734;23.298;2023-04-10T14:20:37;4.50;;;4.10;;
22937;SDS011;11634;42.734;23.298;2023-04-10T14:23:06;5.28;;;4.78;;
22937;SDS011;11634;42.734;23.298;2023-04-10T14:25:32;5.55;;;5.03;;
22937;SDS011;11634;42.734;23.298;2023-04-10T14:27:59;6.03;;;5.43;;
22937;SDS011;11634;42.734;23.298;2023-04-10T14:30:28;7.20;;;6.38;;
22937;SDS011;11634;42.734;23.298;2023-04-10T14:32:56;7.03;;;6.28;;
22937;SDS011;11634;42.734;23.298;2023-04-10T14:35:23;9.13;;;8.32;;
22937;SDS011;11634;42.734;23.298;2023-04-10T14:37:49;6.88;;;6.25;;
22937;SDS011;11634;42.734;23.298;2023-04-10T14:40:16;6.60;;;5.97;;
22937;SDS011;11634;42.734;23.298;2023-04-10T14:42:46;8.70;;;5.82;;
22937;SDS011;11634;42.734;23.298;2023-04-10T14:45:13;11.95;;;7.45;;
22937;SDS011;11634;42.734;23.298;2023-04-10T14:47:39;9.10;;;8.20;;
22937;SDS011;11634;42.734;23.298;2023-04-10T14:50:07;8.35;;;7.55;;
22937;SDS011;11634;42.734;23.298;2023-04-10T14:52:35;8.90;;;7.68;;
22937;SDS011;11634;42.734;23.298;2023-04-10T14:55:02;8.30;;;7.47;;
22937;SDS011;11634;42.734;23.298;2023-04-10T14:57:28;8.65;;;7.25;;
22937;SDS011;11634;42.734;23.298;2023-04-10T14:59:56;9.13;;;8.20;;
22937;SDS011;11634;42.734;23.298;2023-04-10T15:02:24;9.52;;;8.57;;
22937;SDS011;11634;42.734;23.298;2023-04-10T15:04:51;9.45;;;8.55;;
22937;SDS011;11634;42.734;23.298;2023-04-10T15:07:16;9.68;;;7.90;;
22937;SDS011;11634;42.734;23.298;2023-04-10T15:09:43;9.05;;;8.15;;
22937;SDS011;11634;42.734;23.298;2023-04-10T15:12:12;9.00;;;8.15;;
22937;SDS011;11634;42.734;23.298;2023-04-10T15:14:42;9.25;;;8.15;;
22937;SDS011;11634;42.734;23.298;2023-04-10T15:17:08;10.82;;;9.65;;
22937;SDS011;11634;42.734;23.298;2023-04-10T15:19:33;10.82;;;8.88;;
22937;SDS011;11634;42.734;23.298;2023-04-10T15:21:59;11.20;;;9.27;;
22937;SDS011;11634;42.734;23.298;2023-04-10T15:24:26;9.63;;;8.68;;
22937;SDS011;11634;42.734;23.298;2023-04-10T15:26:57;10.50;;;7.82;;
22937;SDS011;11634;42.734;23.298;2023-04-10T15:29:23;8.88;;;7.90;;
22937;SDS011;11634;42.734;23.298;2023-04-10T15:31:48;8.88;;;7.95;;
22937;SDS011;11634;42.734;23.298;2023-04-10T15:34:16;8.68;;;7.78;;
22937;SDS011;11634;42.734;23.298;2023-04-10T15:36:42;9.20;;;8.27;;
22937;SDS011;11634;42.734;23.298;2023-04-10T15:39:09;10.07;;;8.00;;
22937;SDS011;11634;42.734;23.298;2023-04-10T15:41:38;9.68;;;8.48;;
22937;SDS011;11634;42.734;23.298;2023-04-10T15:44:07;10.38;;;8.27;;
22937;SDS011;11634;42.734;23.298;2023-04-10T15:46:34;10.73;;;9.63;;
22937;SDS011;11634;42.734;23.298;2023-04-10T15:49:02;15.00;;;9.63;;
22937;SDS011;11634;42.734;23.298;2023-04-10T15:51:28;11.10;;;9.15;;
22937;SDS011;11634;42.734;23.298;2023-04-10T15:56:41;9.98;;;8.98;;
22937;SDS011;11634;42.734;23.298;2023-04-10T15:59:19;10.05;;;9.05;;
22937;SDS011;11634;42.734;23.298;2023-04-10T16:01:47;10.68;;;9.40;;
22937;SDS011;11634;42.734;23.298;2023-04-10T16:04:13;10.52;;;9.43;;
22937;SDS011;11634;42.734;23.298;2023-04-10T16:06:40;10.10;;;9.10;;
22937;SDS011;11634;42.734;23.298;2023-04-10T16:09:06;10.88;;;9.23;;
22937;SDS011;11634;42.734;23.298;2023-04-10T16:11:31;10.80;;;9.00;;
22937;SDS011;11634;42.734;23.298;2023-04-10T16:14:01;10.82;;;9.48;;
22937;SDS011;11634;42.734;23.298;2023-04-10T16:16:27;10.55;;;9.05;;
22937;SDS011;11634;42.734;23.298;2023-04-10T16:18:55;12.15;;;10.07;;
22937;SDS011;11634;42.734;23.298;2023-04-10T16:21:24;10.48;;;9.38;;
22937;SDS011;11634;42.734;23.298;2023-04-10T16:23:52;11.98;;;9.40;;
22937;SDS011;11634;42.734;23.298;2023-04-10T16:26:17;15.00;;;10.48;;
22937;SDS011;11634;42.734;23.298;2023-04-10T16:28:45;13.20;;;11.82;;
22937;SDS011;11634;42.734;23.298;2023-04-10T16:31:11;15.80;;;14.23;;
22937;SDS011;11634;42.734;23.298;2023-04-10T16:33:42;13.73;;;11.43;;
22937;SDS011;11634;42.734;23.298;2023-04-10T16:36:09;19.48;;;17.67;;
22937;SDS011;11634;42.734;23.298;2023-04-10T16:38:35;11.38;;;10.02;;
22937;SDS011;11634;42.734;23.298;2023-04-10T16:41:04;11.00;;;9.90;;
22937;SDS011;11634;42.734;23.298;2023-04-10T16:43:31;11.88;;;10.52;;
22937;SDS011;11634;42.734;23.298;2023-04-10T16:45:58;11.93;;;10.13;;
22937;SDS011;11634;42.734;23.298;2023-04-10T16:48:26;12.10;;;9.90;;
22937;SDS011;11634;42.734;23.298;2023-04-10T16:50:51;10.90;;;9.52;;
22937;SDS011;11634;42.734;23.298;2023-04-10T16:53:17;11.25;;;8.18;;
22937;SDS011;11634;42.734;23.298;2023-04-10T16:55:44;8.05;;;6.68;;
22937;SDS011;11634;42.734;23.298;2023-04-10T16:58:10;6.55;;;5.85;;
22937;SDS011;11634;42.734;23.298;2023-04-10T17:00:37;7.05;;;6.28;;
22937;SDS011;11634;42.734;23.298;2023-04-10T17:03:04;9.32;;;6.68;;
22937;SDS011;11634;42.734;23.298;2023-04-10T17:05:33;8.18;;;5.95;;
22937;SDS011;11634;42.734;23.298;2023-04-10T17:08:01;8.57;;;7.47;;
22937;SDS011;11634;42.734;23.298;2023-04-10T17:10:31;11.38;;;8.35;;
22937;SDS011;11634;42.734;23.298;2023-04-10T17:12:57;9.35;;;7.68;;
22937;SDS011;11634;42.734;23.298;2023-04-10T17:15:25;12.55;;;8.57;;
22937;SDS011;11634;42.734;23.298;2023-04-10T17:17:51;9.30;;;7.78;;
22937;SDS011;11634;42.734;23.298;2023-04-10T17:20:19;8.77;;;7.85;;
22937;SDS011;11634;42.734;23.298;2023-04-10T17:22:56;9.52;;;8.52;;
22937;SDS011;11634;42.734;23.298;2023-04-10T17:25:23;9.95;;;8.70;;
22937;SDS011;11634;42.734;23.298;2023-04-10T17:27:53;11.18;;;9.70;;
22937;SDS011;11634;42.734;23.298;2023-04-10T17:30:25;10.90;;;9.68;;
22937;SDS011;11634;42.734;23.298;2023-04-10T17:32:55;13.43;;;10.10;;
22937;SDS011;11634;42.734;23.298;2023-04-10T17:35:28;12.35;;;10.52;;
22937;SDS011;11634;42.734;23.298;2023-04-10T17:38:15;16.50;;;11.35;;
22937;SDS011;11634;42.734;23.298;2023-04-10T17:40:50;13.20;;;11.05;;
22937;SDS011;11634;42.734;23.298;2023-04-10T17:43:21;13.23;;;11.32;;
22937;SDS011;11634;42.734;23.298;2023-04-10T17:45:50;13.80;;;11.45;;
22937;SDS011;11634;42.734;23.298;2023-04-10T17:48:17;12.52;;;10.48;;
22937;SDS011;11634;42.734;23.298;2023-04-10T17:50:51;12.93;;;11.25;;
22937;SDS011;11634;42.734;23.298;2023-04-10T17:53:44;12.57;;;11.20;;
22937;SDS011;11634;42.734;23.298;2023-04-10T17:56:19;14.30;;;11.30;;
22937;SDS011;11634;42.734;23.298;2023-04-10T17:58:48;13.13;;;11.25;;
22937;SDS011;11634;42.734;23.298;2023-04-10T18:01:24;13.25;;;11.75;;
22937;SDS011;11634;42.734;23.298;2023-04-10T18:03:54;13.13;;;11.30;;
22937;SDS011;11634;42.734;23.298;2023-04-10T18:06:52;14.77;;;12.50;;
22937;SDS011;11634;42.734;23.298;2023-04-10T18:09:19;14.20;;;11.75;;
22937;SDS011;11634;42.734;23.298;2023-04-10T18:11:46;15.25;;;13.15;;
22937;SDS011;11634;42.734;23.298;2023-04-10T18:14:24;13.82;;;11.82;;
22937;SDS011;11634;42.734;23.298;2023-04-10T18:16:50;15.00;;;12.38;;
22937;SDS011;11634;42.734;23.298;2023-04-10T18:19:17;15.43;;;13.00;;
22937;SDS011;11634;42.734;23.298;2023-04-10T18:21:43;16.83;;;14.02;;
22937;SDS011;11634;42.734;23.298;2023-04-10T18:24:10;15.52;;;12.50;;
22937;SDS011;11634;42.734;23.298;2023-04-10T18:26:37;13.52;;;12.13;;
22937;SDS011;11634;42.734;23.298;2023-04-10T18:29:04;17.73;;;14.85;;
22937;SDS011;11634;42.734;23.298;2023-04-10T18:31:32;15.98;;;13.80;;
22937;SDS011;11634;42.734;23.298;2023-04-10T18:33:57;16.88;;;14.10;;
22937;SDS011;11634;42.734;23.298;2023-04-10T18:36:24;17.15;;;15.02;;
22937;SDS011;11634;42.734;23.298;2023-04-10T18:38:52;18.58;;;15.52;;
22937;SDS011;11634;42.734;23.298;2023-04-10T18:41:17;18.40;;;15.20;;
22937;SDS011;11634;42.734;23.298;2023-04-10T18:43:43;18.02;;;15.13;;
22937;SDS011;11634;42.734;23.298;2023-04-10T18:46:12;21.70;;;17.38;;
22937;SDS011;11634;42.734;23.298;2023-04-10T18:48:41;18.50;;;16.35;;
22937;SDS011;11634;42.734;23.298;2023-04-10T18:51:09;22.33;;;16.73;;
22937;SDS011;11634;42.734;23.298;2023-04-10T18:53:37;21.63;;;17.50;;
22937;SDS011;11634;42.734;23.298;2023-04-10T18:56:04;21.52;;;18.33;;
22937;SDS011;11634;42.734;23.298;2023-04-10T18:58:31;23.23;;;19.33;;
22937;SDS011;11634;42.734;23.298;2023-04-10T19:00:57;23.35;;;20.85;;
22937;SDS011;11634;42.734;23.298;2023-04-10T19:03:24;27.05;;;20.58;;
22937;SDS011;11634;42.734;23.298;2023-04-10T19:05:50;23.15;;;19.55;;
22937;SDS011;11634;42.734;23.298;2023-04-10T19:08:16;26.50;;;21.58;;
22937;SDS011;11634;42.734;23.298;2023-04-10T19:10:45;27.23;;;22.55;;
22937;SDS011;11634;42.734;23.298;2023-04-10T19:13:20;25.45;;;22.48;;
22937;SDS011;11634;42.734;23.298;2023-04-10T19:15:47;24.70;;;19.55;;
22937;SDS011;11634;42.734;23.298;2023-04-10T19:18:18;22.73;;;19.42;;
22937;SDS011;11634;42.734;23.298;2023-04-10T19:20:45;23.58;;;20.17;;
22937;SDS011;11634;42.734;23.298;2023-04-10T19:23:11;26.17;;;21.00;;
22937;SDS011;11634;42.734;23.298;2023-04-10T19:25:40;26.63;;;21.92;;
22937;SDS011;11634;42.734;23.298;2023-04-10T19:28:09;31.35;;;24.08;;
22937;SDS011;11634;42.734;23.298;2023-04-10T19:30:38;28.75;;;25.05;;
22937;SDS011;11634;42.734;23.298;2023-04-10T19:33:05;24.75;;;20.50;;
22937;SDS011;11634;42.734;23.298;2023-04-10T19:35:31;29.20;;;22.95;;
22937;SDS011;11634;42.734;23.298;2023-04-10T19:38:04;26.23;;;21.77;;
22937;SDS011;11634;42.734;23.298;2023-04-10T19:40:29;26.67;;;22.05;;
22937;SDS011;11634;42.734;23.298;2023-04-10T19:42:59;27.95;;;22.35;;
22937;SDS011;11634;42.734;23.298;2023-04-10T19:45:27;25.02;;;21.67;;
22937;SDS011;11634;42.734;23.298;2023-04-10T19:47:57;29.08;;;24.10;;
22937;SDS011;11634;42.734;23.298;2023-04-10T19:50:22;26.05;;;23.15;;
22937;SDS011;11634;42.734;23.298;2023-04-10T19:52:48;30.40;;;24.70;;
22937;SDS011;11634;42.734;23.298;2023-04-10T19:55:16;30.98;;;25.50;;
22937;SDS011;11634;42.734;23.298;2023-04-10T19:57:42;31.92;;;25.98;;
22937;SDS011;11634;42.734;23.298;2023-04-10T20:00:08;33.80;;;27.35;;
22937;SDS011;11634;42.734;23.298;2023-04-10T20:02:39;28.95;;;24.98;;
22937;SDS011;11634;42.734;23.298;2023-04-10T20:05:07;32.08;;;26.70;;